Time;durP1;ratioP1;P1;durP2;ratioP2;P2;SDS_P1;SDS_P2;PMS_P1;PMS_P2;Temp;Humidity;BMP_temperature;BMP_pressure;BME280_temperature;BME280_humidity;BME280_pressure;Samples;Min_cycle;Max_cycle;Signal;HPM_P1;HPM_P2
2022/01/29 00:00:54;;;;;;;9.97;9.67;;;3.00;99.90;;;;;;6360874;22;20215;-84
2022/01/29 00:03:42;;;;;;;9.87;9.57;;;3.00;99.90;;;;;;6371638;22;20234;-84
2022/01/29 00:06:11;;;;;;;10.00;9.70;;;3.00;99.90;;;;;;6370115;22;20184;-84
2022/01/29 00:09:06;;;;;;;9.83;9.53;;;3.00;99.90;;;;;;6372882;22;20200;-83
2022/01/29 00:12:21;;;;;;;10.00;9.70;;;3.00;99.90;;;;;;6371656;22;20208;-84
2022/01/29 00:15:03;;;;;;;10.13;9.83;;;3.00;99.90;;;;;;6368500;22;20192;-85
2022/01/29 00:17:48;;;;;;;10.07;9.77;;;3.00;99.90;;;;;;6364419;22;20204;-84
2022/01/29 00:20:22;;;;;;;10.30;10.00;;;3.00;99.90;;;;;;6363284;22;20192;-84
2022/01/29 00:25:50;;;;;;;10.30;10.00;;;3.00;99.90;;;;;;6260304;22;20289;-84
2022/01/29 00:28:24;;;;;;;10.10;9.80;;;3.10;99.90;;;;;;6330457;22;20231;-84
2022/01/29 00:31:04;;;;;;;10.10;9.80;;;3.10;99.90;;;;;;6355696;22;20219;-85
2022/01/29 00:34:08;;;;;;;10.03;9.73;;;3.10;99.90;;;;;;6357806;22;20188;-85
2022/01/29 00:39:45;;;;;;;9.90;9.60;;;3.10;99.90;;;;;;6256735;22;20202;-84
2022/01/29 00:42:43;;;;;;;9.73;9.43;;;3.10;99.90;;;;;;6259982;22;20194;-83
2022/01/29 00:48:15;;;;;;;9.70;9.40;;;3.10;99.90;;;;;;6337369;22;20208;-84
2022/01/29 00:50:49;;;;;;;9.70;9.40;;;3.20;99.90;;;;;;6349954;22;20219;-84
2022/01/29 00:54:01;;;;;;;9.70;9.40;;;3.20;99.90;;;;;;6349800;22;20210;-84
2022/01/29 01:19:59;;;;;;;9.43;9.13;;;3.40;99.90;;;;;;6239276;22;20268;-85
2022/01/29 01:23:46;;;;;;;9.63;9.33;;;3.40;99.90;;;;;;6251159;22;20194;-84
2022/01/29 01:27:10;;;;;;;9.70;9.40;;;3.40;99.90;;;;;;6131625;23;20201;-84
2022/01/29 01:30:38;;;;;;;;;;;;;;;;;;;;;
2022/01/29 01:33:50;;;;;;;9.47;9.17;;;3.40;99.90;;;;;;6295254;22;20191;-85
2022/01/29 01:36:58;;;;;;;9.73;9.43;;;3.30;99.90;;;;;;6349323;22;20200;-84
2022/01/29 01:47:25;;;;;;;9.50;9.20;;;3.20;99.90;;;;;;6343413;22;20215;-77
2022/01/29 01:49:53;;;;;;;9.53;9.23;;;3.20;99.90;;;;;;6378525;22;20195;-78
2022/01/29 01:52:21;;;;;;;9.80;9.50;;;3.20;99.90;;;;;;6380080;22;20202;-77
2022/01/29 01:54:49;;;;;;;9.40;9.10;;;3.20;99.90;;;;;;6379827;22;20230;-77
2022/01/29 01:57:17;;;;;;;9.60;9.30;;;3.20;99.90;;;;;;6358086;22;20258;-77
2022/01/29 01:59:45;;;;;;;9.60;9.30;;;3.20;99.90;;;;;;6353038;22;20227;-78
2022/01/29 02:02:13;;;;;;;10.07;9.77;;;3.20;99.90;;;;;;6353404;22;20197;-78
2022/01/29 02:04:42;;;;;;;9.80;9.50;;;3.20;99.90;;;;;;6351947;22;20200;-78
2022/01/29 02:07:10;;;;;;;9.57;9.27;;;3.20;99.90;;;;;;6348129;22;20200;-78
2022/01/29 02:09:39;;;;;;;9.60;9.30;;;3.20;99.90;;;;;;6348578;22;20670;-78
2022/01/29 02:12:10;;;;;;;9.47;9.17;;;3.20;99.90;;;;;;6347832;22;20200;-78
2022/01/29 02:14:39;;;;;;;9.63;9.33;;;3.20;99.90;;;;;;6351668;22;20247;-78
2022/01/29 02:17:10;;;;;;;9.50;9.20;;;3.30;99.90;;;;;;6354100;22;20226;-78
2022/01/29 02:19:38;;;;;;;9.27;8.97;;;3.30;99.90;;;;;;6350478;22;20224;-77
2022/01/29 02:22:07;;;;;;;9.63;9.33;;;3.30;99.90;;;;;;6347696;22;20200;-78
2022/01/29 02:24:36;;;;;;;9.47;9.17;;;3.30;99.90;;;;;;6347207;22;20193;-78
2022/01/29 02:27:03;;;;;;;9.40;9.10;;;3.30;99.90;;;;;;6347253;22;20215;-78
2022/01/29 02:29:35;;;;;;;9.70;9.40;;;3.40;99.90;;;;;;6346754;22;20188;-78
2022/01/29 02:32:03;;;;;;;9.90;9.60;;;3.40;99.90;;;;;;6346728;22;20210;-78
2022/01/29 02:34:32;;;;;;;9.60;9.30;;;3.30;99.90;;;;;;6346671;22;20242;-78
2022/01/29 02:37:00;;;;;;;9.60;9.30;;;3.40;99.90;;;;;;6346608;22;20227;-78
2022/01/29 02:39:29;;;;;;;9.73;9.43;;;3.40;99.90;;;;;;6346990;22;20199;-78
2022/01/29 02:41:59;;;;;;;9.60;9.30;;;3.40;99.90;;;;;;6346220;22;20200;-79
2022/01/29 02:44:27;;;;;;;9.43;9.13;;;3.40;99.90;;;;;;6346357;22;20196;-79
2022/01/29 02:46:57;;;;;;;9.50;9.20;;;3.40;99.90;;;;;;6346185;22;20322;-79
2022/01/29 02:49:27;;;;;;;9.73;9.43;;;3.40;99.90;;;;;;6347030;22;20196;-79
2022/01/29 02:51:57;;;;;;;9.50;9.20;;;3.40;99.90;;;;;;6346423;22;20189;-77
2022/01/29 02:54:26;;;;;;;9.20;8.90;;;3.40;99.90;;;;;;6346316;22;20230;-77
2022/01/29 02:56:56;;;;;;;9.50;9.20;;;3.30;99.90;;;;;;6346533;22;20211;-77
2022/01/29 02:59:23;;;;;;;9.33;9.03;;;3.30;99.90;;;;;;6347480;22;20274;-77
2022/01/29 03:01:51;;;;;;;9.50;9.20;;;3.30;99.90;;;;;;6345825;22;20204;-78
2022/01/29 03:04:19;;;;;;;9.67;9.37;;;3.30;99.90;;;;;;6346995;22;20196;-78
2022/01/29 03:06:47;;;;;;;9.60;9.30;;;3.30;99.90;;;;;;6345867;22;20197;-78
2022/01/29 03:09:14;;;;;;;9.30;9.00;;;3.40;99.90;;;;;;6346465;22;20200;-78
2022/01/29 03:11:42;;;;;;;9.77;9.47;;;3.30;99.90;;;;;;6345976;22;20196;-78
2022/01/29 03:14:11;;;;;;;9.70;9.40;;;3.30;99.90;;;;;;6346652;22;20196;-78
2022/01/29 03:16:39;;;;;;;9.70;9.40;;;3.30;99.90;;;;;;6346840;22;20196;-78
2022/01/29 03:19:07;;;;;;;9.60;9.30;;;3.30;99.90;;;;;;6346993;22;20282;-78
2022/01/29 03:21:34;;;;;;;9.47;9.17;;;3.20;99.90;;;;;;6345709;22;20188;-78
2022/01/29 03:24:02;;;;;;;9.30;9.00;;;3.20;99.90;;;;;;6345514;22;20250;-79
2022/01/29 03:26:31;;;;;;;9.60;9.30;;;3.30;99.90;;;;;;6345711;22;20215;-79
2022/01/29 03:28:58;;;;;;;9.60;9.30;;;3.20;99.90;;;;;;6345720;22;20226;-79
2022/01/29 03:31:29;;;;;;;9.50;9.20;;;3.20;99.90;;;;;;6345338;22;20269;-79
2022/01/29 03:33:56;;;;;;;9.23;8.93;;;3.30;99.90;;;;;;6346542;22;20196;-78
2022/01/29 03:36:24;;;;;;;9.80;9.50;;;3.30;99.90;;;;;;6345446;22;20254;-78
2022/01/29 03:38:52;;;;;;;9.63;9.33;;;3.30;99.90;;;;;;6347402;22;20254;-78
2022/01/29 03:41:20;;;;;;;9.70;9.40;;;3.30;99.90;;;;;;6346145;22;20218;-79
2022/01/29 03:43:51;;;;;;;9.60;9.30;;;3.30;99.90;;;;;;6345362;22;20230;-78
2022/01/29 03:46:18;;;;;;;9.50;9.20;;;3.30;99.90;;;;;;6347587;22;20204;-78
2022/01/29 03:48:48;;;;;;;9.20;8.90;;;3.20;99.90;;;;;;6348235;22;20207;-79
2022/01/29 03:51:16;;;;;;;9.80;9.50;;;3.20;99.90;;;;;;6346686;22;20188;-78
2022/01/29 03:53:46;;;;;;;9.50;9.20;;;3.20;99.90;;;;;;6346873;22;20246;-78
2022/01/29 03:56:13;;;;;;;9.50;9.20;;;3.20;99.90;;;;;;6345746;22;20200;-78
2022/01/29 03:58:41;;;;;;;9.20;8.90;;;3.20;99.90;;;;;;6346320;22;20191;-78
2022/01/29 04:01:09;;;;;;;9.50;9.20;;;3.20;99.90;;;;;;6345839;22;20262;-79
2022/01/29 04:03:36;;;;;;;9.20;8.90;;;3.20;99.90;;;;;;6346004;22;20204;-79
2022/01/29 04:06:06;;;;;;;9.53;9.23;;;3.20;99.90;;;;;;6345733;22;20208;-78
2022/01/29 04:08:40;;;;;;;9.63;9.33;;;3.20;99.90;;;;;;6345716;22;20192;-77
2022/01/29 04:11:08;;;;;;;9.33;9.03;;;3.20;99.90;;;;;;6345970;22;20283;-79
2022/01/29 04:13:37;;;;;;;9.40;9.10;;;3.20;99.90;;;;;;6345498;22;20211;-79
2022/01/29 04:16:06;;;;;;;9.40;9.10;;;3.20;99.90;;;;;;6345796;22;20207;-79
2022/01/29 04:18:34;;;;;;;9.30;9.00;;;3.20;99.90;;;;;;6345946;22;20192;-78
2022/01/29 04:21:02;;;;;;;9.50;9.20;;;3.10;99.90;;;;;;6345461;22;20196;-78
2022/01/29 04:23:31;;;;;;;9.50;9.20;;;3.20;99.90;;;;;;6345399;22;20200;-79
2022/01/29 04:26:00;;;;;;;9.53;9.23;;;3.10;99.90;;;;;;6345759;22;20250;-79
2022/01/29 04:28:31;;;;;;;9.60;9.30;;;3.20;99.90;;;;;;6345808;22;20202;-78
2022/01/29 04:31:02;;;;;;;9.40;9.10;;;3.20;99.90;;;;;;6345586;22;20196;-78
2022/01/29 04:33:30;;;;;;;9.47;9.17;;;3.10;99.90;;;;;;6345614;22;20196;-78
2022/01/29 04:35:59;;;;;;;9.43;9.13;;;3.20;99.90;;;;;;6345699;22;20204;-78
2022/01/29 04:38:30;;;;;;;9.37;9.07;;;3.10;99.90;;;;;;6345611;22;20192;-78
2022/01/29 04:41:03;;;;;;;9.20;8.90;;;3.10;99.90;;;;;;6345477;22;20254;-78
2022/01/29 04:43:32;;;;;;;9.33;9.03;;;3.10;99.90;;;;;;6344906;22;20192;-79
2022/01/29 04:46:00;;;;;;;9.47;9.17;;;3.10;99.90;;;;;;6345224;22;20329;-79
2022/01/29 04:48:28;;;;;;;9.47;9.17;;;3.10;99.90;;;;;;6346476;22;20258;-79
2022/01/29 04:50:56;;;;;;;9.20;8.90;;;3.10;99.90;;;;;;6346618;22;20250;-79
2022/01/29 04:53:24;;;;;;;8.90;8.70;;;3.00;99.90;;;;;;6346683;22;20188;-79
2022/01/29 04:55:53;;;;;;;9.20;8.90;;;3.10;99.90;;;;;;6346773;22;20222;-79
2022/01/29 04:58:21;;;;;;;9.70;9.40;;;3.10;99.90;;;;;;6346767;22;20189;-78
2022/01/29 05:00:48;;;;;;;9.57;9.27;;;3.10;99.90;;;;;;6346552;22;20281;-78
2022/01/29 05:03:16;;;;;;;9.17;8.87;;;3.10;99.90;;;;;;6346610;22;20290;-79
2022/01/29 05:05:45;;;;;;;9.20;8.90;;;3.10;99.90;;;;;;6347070;22;20200;-78
2022/01/29 05:08:13;;;;;;;9.40;9.10;;;3.10;99.90;;;;;;6346858;22;20196;-78
2022/01/29 05:10:41;;;;;;;8.80;8.60;;;3.10;99.90;;;;;;6346697;22;20196;-78
2022/01/29 05:13:12;;;;;;;9.20;8.90;;;3.10;99.90;;;;;;6346710;22;20207;-79
2022/01/29 05:15:55;;;;;;;9.60;9.30;;;3.10;99.90;;;;;;6346425;22;20188;-79
2022/01/29 05:26:54;;;;;;;9.67;9.37;;;3.10;99.90;;;;;;6347294;22;20226;-78
2022/01/29 05:29:26;;;;;;;9.40;9.10;;;3.10;99.90;;;;;;6346789;22;20251;-79
2022/01/29 05:31:54;;;;;;;9.60;9.30;;;3.00;99.90;;;;;;6346267;22;20266;-79
2022/01/29 05:34:22;;;;;;;9.40;9.10;;;3.00;99.90;;;;;;6346845;22;20208;-78
2022/01/29 05:36:50;;;;;;;9.50;9.20;;;3.10;99.90;;;;;;6347249;22;20262;-78
2022/01/29 05:39:18;;;;;;;9.40;9.10;;;3.10;99.90;;;;;;6346554;22;20204;-78
2022/01/29 05:41:46;;;;;;;9.60;9.30;;;3.10;99.90;;;;;;6346588;22;20188;-79
2022/01/29 05:44:14;;;;;;;9.40;9.10;;;3.10;99.90;;;;;;6346492;22;20204;-78
2022/01/29 05:46:43;;;;;;;9.53;9.23;;;3.00;99.90;;;;;;6345985;22;20258;-78
2022/01/29 05:49:11;;;;;;;9.47;9.17;;;3.10;99.90;;;;;;6346766;22;20204;-78
2022/01/29 05:51:40;;;;;;;9.03;8.77;;;3.00;99.90;;;;;;6346319;22;20200;-79
2022/01/29 05:54:08;;;;;;;9.57;9.27;;;3.10;99.90;;;;;;6347924;22;20200;-78
2022/01/29 05:56:35;;;;;;;9.23;8.93;;;3.00;99.90;;;;;;6347113;22;20196;-79
2022/01/29 05:59:03;;;;;;;9.30;9.00;;;3.00;99.90;;;;;;6346830;22;20221;-78
2022/01/29 06:01:31;;;;;;;9.20;8.90;;;3.00;99.90;;;;;;6347106;22;20200;-79
2022/01/29 06:04:00;;;;;;;9.13;8.83;;;3.00;99.90;;;;;;6347247;22;20219;-79
2022/01/29 06:06:28;;;;;;;9.77;9.47;;;3.00;99.90;;;;;;6348546;22;20208;-79
2022/01/29 06:08:55;;;;;;;9.60;9.30;;;3.00;99.90;;;;;;6348442;22;20208;-79
2022/01/29 06:11:23;;;;;;;9.40;9.10;;;3.00;99.90;;;;;;6348915;22;20218;-78
2022/01/29 06:13:51;;;;;;;9.70;9.40;;;3.00;99.90;;;;;;6348471;22;20214;-78
2022/01/29 06:16:18;;;;;;;9.30;9.00;;;3.00;99.90;;;;;;6356493;22;20206;-78
2022/01/29 06:18:46;;;;;;;9.63;9.33;;;3.00;99.90;;;;;;6360152;22;20188;-82
2022/01/29 06:21:15;;;;;;;9.47;9.17;;;2.90;99.90;;;;;;6355597;22;20195;-79
2022/01/29 06:23:44;;;;;;;9.33;9.03;;;2.90;99.90;;;;;;6347504;22;20192;-78
2022/01/29 06:26:13;;;;;;;9.40;9.10;;;2.90;99.90;;;;;;6348710;22;20207;-78
2022/01/29 06:28:42;;;;;;;9.37;9.07;;;2.90;99.90;;;;;;6348673;22;20251;-79
2022/01/29 06:31:10;;;;;;;9.60;9.30;;;3.00;99.90;;;;;;6353848;22;20188;-78
2022/01/29 06:33:38;;;;;;;9.77;9.47;;;3.00;99.90;;;;;;6357842;22;20204;-79
2022/01/29 06:36:07;;;;;;;9.57;9.27;;;3.00;99.90;;;;;;6352101;22;20200;-78
2022/01/29 06:38:36;;;;;;;9.60;9.30;;;3.00;99.90;;;;;;6348235;22;20192;-78
2022/01/29 06:41:04;;;;;;;9.70;9.40;;;3.00;99.90;;;;;;6348524;22;20192;-79
2022/01/29 06:43:32;;;;;;;9.60;9.30;;;3.00;99.90;;;;;;6348217;22;20226;-79
2022/01/29 06:46:00;;;;;;;9.73;9.43;;;3.00;99.90;;;;;;6348352;22;20203;-79
2022/01/29 06:48:28;;;;;;;9.57;9.27;;;3.00;99.90;;;;;;6348219;22;20208;-78
2022/01/29 06:50:56;;;;;;;9.37;9.07;;;3.00;99.90;;;;;;6347289;22;20208;-78
2022/01/29 06:53:23;;;;;;;9.93;9.63;;;3.00;99.90;;;;;;6347801;22;20192;-79
2022/01/29 06:55:52;;;;;;;10.03;9.73;;;3.10;99.90;;;;;;6348308;22;20208;-79
2022/01/29 06:58:20;;;;;;;9.93;9.63;;;3.10;99.90;;;;;;6348034;22;20197;-79
2022/01/29 07:00:48;;;;;;;9.70;9.40;;;3.00;99.90;;;;;;6347828;22;20188;-78
2022/01/29 07:03:16;;;;;;;9.90;9.60;;;3.00;99.90;;;;;;6348381;22;20253;-79
2022/01/29 07:05:43;;;;;;;10.00;9.70;;;3.10;99.90;;;;;;6347804;22;20196;-78
2022/01/29 07:08:11;;;;;;;9.63;9.33;;;3.10;99.90;;;;;;6348794;22;20192;-80
2022/01/29 07:10:39;;;;;;;9.50;9.20;;;3.10;99.90;;;;;;6348542;22;20276;-79
2022/01/29 07:13:09;;;;;;;9.50;9.20;;;3.10;99.90;;;;;;6348620;22;20196;-79
2022/01/29 07:15:37;;;;;;;10.00;9.70;;;3.10;99.90;;;;;;6349555;22;20289;-78
2022/01/29 07:18:05;;;;;;;9.67;9.37;;;3.10;99.90;;;;;;6348042;22;20196;-78
2022/01/29 07:20:33;;;;;;;9.60;9.30;;;3.10;99.90;;;;;;6348002;22;20253;-79
2022/01/29 07:23:01;;;;;;;9.70;9.40;;;3.10;99.90;;;;;;6348415;22;20230;-78
2022/01/29 07:25:29;;;;;;;9.70;9.40;;;3.10;99.90;;;;;;6348582;22;20291;-79
2022/01/29 07:27:56;;;;;;;9.70;9.40;;;3.10;99.90;;;;;;6348122;22;20196;-78
2022/01/29 07:30:26;;;;;;;9.60;9.30;;;3.10;99.90;;;;;;6349624;22;20714;-79
2022/01/29 07:32:53;;;;;;;9.60;9.30;;;3.10;99.90;;;;;;6352606;22;20264;-79
2022/01/29 07:35:21;;;;;;;9.63;9.33;;;3.00;99.90;;;;;;6348649;22;20291;-78
2022/01/29 07:37:49;;;;;;;10.03;9.73;;;3.00;99.90;;;;;;6349094;22;20328;-79
2022/01/29 07:40:17;;;;;;;9.13;8.83;;;3.00;99.90;;;;;;6349708;22;20204;-79
2022/01/29 07:42:44;;;;;;;9.57;9.27;;;3.00;99.90;;;;;;6349792;22;20262;-79
2022/01/29 07:45:12;;;;;;;9.50;9.20;;;3.00;99.90;;;;;;6351391;22;20196;-78
2022/01/29 07:48:29;;;;;;;9.63;9.33;;;3.00;99.90;;;;;;6369058;22;20207;-84
2022/01/29 07:51:29;;;;;;;9.77;9.47;;;3.00;99.90;;;;;;6377772;22;20200;-84
2022/01/29 07:54:53;;;;;;;9.80;9.50;;;3.10;99.90;;;;;;6394840;22;20225;-83
2022/01/29 08:01:35;;;;;;;9.90;9.60;;;3.10;99.90;;;;;;6305163;22;20196;-84
2022/01/29 08:14:32;;;;;;;9.90;9.60;;;3.10;99.90;;;;;;6346889;22;20291;-83
2022/01/29 08:26:49;;;;;;;9.80;9.50;;;3.10;99.90;;;;;;6366085;22;20181;-83
2022/01/29 08:52:26;;;;;;;8.80;8.60;;;3.10;99.90;;;;;;4561373;27;18001576;-83
2022/01/29 08:58:00;;;;;;;9.27;8.97;;;3.00;99.90;;;;;;5170636;27;20211;-82
2022/01/29 09:08:11;;;;;;;8.90;8.70;;;3.00;99.90;;;;;;5073742;28;20268;-83
2022/01/29 09:12:01;;;;;;;8.83;8.63;;;3.10;99.90;;;;;;5161036;27;20226;-84
2022/01/29 09:22:07;;;;;;;8.97;8.67;;;3.10;99.90;;;;;;5070486;28;20234;-84
2022/01/29 09:45:52;;;;;;;9.20;8.90;;;3.30;99.90;;;;;;5012913;28;20257;-85
2022/01/29 09:52:29;;;;;;;8.90;8.70;;;3.40;99.90;;;;;;5107097;27;20224;-85
2022/01/29 10:08:47;;;;;;;9.00;8.77;;;3.60;99.90;;;;;;5125024;22;20237;-82
2022/01/29 10:34:15;;;;;;;9.27;8.97;;;3.80;99.90;;;;;;5017900;28;20326;-82
2022/01/29 10:48:55;;;;;;;9.20;8.90;;;4.10;99.90;;;;;;4957756;28;20240;-81
2022/01/29 10:55:53;;;;;;;9.60;9.30;;;4.10;99.90;;;;;;5013147;28;20313;-82
2022/01/29 10:58:24;;;;;;;9.60;9.30;;;4.20;99.90;;;;;;5082130;28;20237;-82
2022/01/29 11:09:08;;;;;;;9.70;9.40;;;4.20;99.90;;;;;;5123983;22;20245;-82
2022/01/29 11:12:42;;;;;;;9.30;9.00;;;4.20;99.90;;;;;;5055270;28;20229;-83
2022/01/29 11:15:19;;;;;;;9.47;9.17;;;4.30;99.90;;;;;;5073019;28;20228;-83
2022/01/29 11:22:04;;;;;;;9.10;8.80;;;4.20;99.90;;;;;;4975602;28;20245;-82
2022/01/29 11:24:55;;;;;;;9.23;8.93;;;4.30;99.90;;;;;;4985853;28;20229;-82
2022/01/29 11:51:05;;;;;;;9.10;8.80;;;4.40;99.90;;;;;;4919268;28;20311;-83
2022/01/29 12:27:01;;;;;;;9.27;8.97;;;4.80;99.90;;;;;;5015871;28;20435;-84
2022/01/29 13:28:46;;;;;;;8.80;8.60;;;5.00;99.90;;;;;;4928678;28;20238;-83
2022/01/29 13:34:31;;;;;;;9.20;8.90;;;5.10;99.90;;;;;;5044586;28;20226;-84
2022/01/29 13:37:44;;;;;;;9.20;8.90;;;5.20;99.90;;;;;;5064611;28;20233;-83
2022/01/29 18:08:56;;;;;;;9.53;9.23;;;5.70;99.90;;;;;;4762893;29;20351;-85
2022/01/29 18:11:42;;;;;;;9.33;9.03;;;5.70;99.90;;;;;;4852612;29;20262;-86
2022/01/29 18:21:14;;;;;;;8.40;8.20;;;5.70;99.90;;;;;;4899245;29;20304;-84
2022/01/29 18:41:52;;;;;;;8.13;7.93;;;5.80;99.90;;;;;;6362158;22;20288;-82
2022/01/29 18:49:18;;;;;;;8.53;8.33;;;5.80;99.90;;;;;;6233138;22;20213;-81
2022/01/29 18:52:11;;;;;;;;;;;;;;;;;;;;;
2022/01/29 18:54:53;;;;;;;9.20;8.90;;;5.80;99.90;;;;;;6360071;22;20200;-81
2022/01/29 19:35:45;;;;;;;8.30;8.10;;;6.10;99.90;;;;;;5990929;23;20218;-81
2022/01/29 19:56:11;;;;;;;8.40;8.20;;;6.10;99.90;;;;;;6149303;22;20260;-81
2022/01/29 19:58:53;;;;;;;8.87;8.67;;;6.10;99.90;;;;;;6261822;22;20205;-81
2022/01/29 20:01:30;;;;;;;8.27;8.07;;;6.20;99.90;;;;;;6261198;22;20195;-81
2022/01/29 20:04:03;;;;;;;8.20;8.00;;;6.20;99.90;;;;;;6268602;22;20190;-81
2022/01/29 20:06:41;;;;;;;8.60;8.40;;;6.30;99.90;;;;;;6272516;22;20201;-80
2022/01/29 20:09:35;;;;;;;8.57;8.37;;;6.30;99.90;;;;;;6263750;22;20210;-81
2022/01/29 20:12:30;;;;;;;8.43;8.23;;;6.30;99.90;;;;;;6262794;22;20194;-81
2022/01/29 20:15:34;;;;;;;8.27;8.07;;;6.30;99.90;;;;;;6256789;22;20746;-81
2022/01/29 20:21:08;;;;;;;8.50;8.30;;;6.30;99.90;;;;;;6255362;22;20193;-81
2022/01/29 20:30:38;;;;;;;9.20;8.90;;;6.30;99.90;;;;;;6239580;22;20206;-80
2022/01/29 20:33:09;;;;;;;9.07;8.77;;;6.30;99.90;;;;;;6257403;22;20204;-80
2022/01/29 20:36:28;;;;;;;9.30;9.00;;;6.30;99.90;;;;;;6257419;22;20198;-81
2022/01/29 20:43:53;;;;;;;8.90;8.70;;;6.40;99.90;;;;;;6224918;22;20255;-81
2022/01/29 20:47:33;;;;;;;8.90;8.70;;;6.40;99.90;;;;;;6160282;23;20234;-80
2022/01/29 20:57:19;;;;;;;9.20;8.90;;;6.40;99.90;;;;;;6184339;22;20239;-80
2022/01/29 21:03:34;;;;;;;9.03;8.73;;;6.40;99.90;;;;;;6253590;22;20190;-81
2022/01/29 21:06:45;;;;;;;8.97;8.70;;;6.40;99.90;;;;;;6258010;22;20200;-81
2022/01/29 21:13:01;;;;;;;;;;;;;;;;;;;;;
2022/01/29 21:16:42;;;;;;;8.77;8.57;;;6.40;99.90;;;;;;6256283;22;20229;-80
2022/01/29 21:19:18;;;;;;;8.57;8.37;;;6.40;99.90;;;;;;6224750;22;20225;-81
2022/01/29 21:21:55;;;;;;;8.37;8.17;;;6.50;99.90;;;;;;6261728;22;20194;-79
2022/01/29 21:25:02;;;;;;;8.83;8.63;;;6.50;99.90;;;;;;6262061;22;20246;-80
2022/01/29 21:28:01;;;;;;;8.63;8.43;;;6.60;99.90;;;;;;6260548;22;20228;-80
2022/01/29 21:30:56;;;;;;;8.60;8.40;;;6.60;99.90;;;;;;6264548;22;20229;-79
2022/01/29 21:33:46;;;;;;;9.27;8.97;;;6.50;99.90;;;;;;6260706;22;20204;-78
2022/01/29 21:36:57;;;;;;;;;;;;;;;;;;;;;
2022/01/29 21:58:46;;;;;;;9.13;8.83;;;6.50;99.90;;;;;;6073124;23;20641;-78
2022/01/29 22:08:55;;;;;;;9.30;9.00;;;6.50;99.90;;;;;;6238871;22;20707;-79
2022/01/29 22:11:55;;;;;;;9.23;8.93;;;6.50;99.90;;;;;;6180586;22;20249;-80
2022/01/29 22:15:06;;;;;;;9.43;9.13;;;6.50;99.90;;;;;;6287713;22;20201;-80
2022/01/29 22:22:21;;;;;;;9.33;9.03;;;6.50;99.90;;;;;;6164454;23;20203;-79
2022/01/29 22:25:18;;;;;;;9.30;9.00;;;6.50;99.90;;;;;;6104157;23;20228;-80
2022/01/29 22:28:07;;;;;;;9.20;8.90;;;6.50;99.90;;;;;;6103597;23;20212;-80
2022/01/29 22:30:58;;;;;;;9.20;8.90;;;6.60;99.90;;;;;;6187792;23;20207;-79
2022/01/29 22:33:33;;;;;;;9.43;9.13;;;6.60;99.90;;;;;;6193198;23;20196;-79
2022/01/29 22:36:14;;;;;;;9.40;9.10;;;6.60;99.90;;;;;;6283600;22;20252;-80
2022/01/29 23:01:43;;;;;;;8.70;8.50;;;6.60;99.90;;;;;;6021066;23;20211;-79
2022/01/29 23:04:20;;;;;;;9.60;9.30;;;6.70;99.90;;;;;;6186045;23;20230;-80
2022/01/29 23:19:43;;;;;;;9.23;8.93;;;6.70;99.90;;;;;;6102572;23;20205;-81
2022/01/29 23:26:03;;;;;;;9.00;8.70;;;6.60;99.90;;;;;;6271231;22;20217;-80
2022/01/29 23:29:55;;;;;;;8.50;8.30;;;6.60;99.90;;;;;;6290971;22;20208;-82
2022/01/29 23:35:53;;;;;;;8.30;8.10;;;6.60;99.90;;;;;;6282459;22;20212;-82
2022/01/29 23:39:04;;;;;;;9.17;8.87;;;6.50;99.90;;;;;;6294270;22;20209;-81
